Elk, Pennsylvania
Current Conditions -  °F | °C
As of 7:15 AM on Friday 19 Dec 2014 (Local Time) from KN38 Reporting Station
Overcast Overcast  
Wind Chill: -8°   Ceiling: 1500
Heat Index: -3°   Visibility: 10mi
Dew Point: -6°   Wind: 8mph
Humidity: 80%   Direction: 320°NW
Pressure: 30.03"   Gusts: NA
Location:  41.6649°N, 77.5403°W
Report Text: KN38 191215Z AUTO 32007KT 270V350 10SM OVC015 M03/M06 A3003 RMK AO2
Loading
Personal Weather Stations






























Interactive Weather Map New forecast layout! Learn more

10-Day Weather Forecast

Advertisements
Track Severe Weather on mobile